Time;durP1;ratioP1;P1;durP2;ratioP2;P2;SDS_P1;SDS_P2;PMS_P1;PMS_P2;Temp;Humidity;BMP_temperature;BMP_pressure;BME280_temperature;BME280_humidity;BME280_pressure;Samples;Min_cycle;Max_cycle;Signal;HPM_P1;HPM_P2
2023/08/22 00:00:27;;;;;;;11.43;4.23;;;19.20;99.90;;;;;;7308453;19;20192;-79
2023/08/22 00:02:54;;;;;;;11.73;4.20;;;19.20;99.90;;;;;;7286833;19;20189;-79
2023/08/22 00:05:21;;;;;;;8.90;3.70;;;19.30;99.90;;;;;;7287190;19;20715;-79
2023/08/22 00:07:48;;;;;;;10.70;4.10;;;19.20;99.90;;;;;;7287796;19;20203;-79
2023/08/22 00:10:14;;;;;;;10.57;4.43;;;19.10;99.90;;;;;;7286362;19;20193;-79
2023/08/22 00:12:40;;;;;;;11.73;4.33;;;19.10;99.90;;;;;;7285060;19;20202;-78
2023/08/22 00:15:09;;;;;;;13.53;5.13;;;19.10;99.90;;;;;;7286561;19;20287;-79
2023/08/22 00:17:37;;;;;;;15.77;4.77;;;19.00;99.90;;;;;;7283947;19;20724;-78
2023/08/22 00:20:04;;;;;;;11.50;4.87;;;18.90;99.90;;;;;;7286787;19;20193;-79
2023/08/22 00:22:30;;;;;;;10.50;4.77;;;18.80;99.90;;;;;;7285425;19;20547;-78
2023/08/22 00:24:56;;;;;;;11.03;4.93;;;18.80;99.90;;;;;;7306470;19;20194;-80
2023/08/22 00:27:22;;;;;;;13.10;4.60;;;18.80;99.90;;;;;;7284983;19;20727;-78
2023/08/22 00:29:48;;;;;;;12.93;4.83;;;18.70;99.90;;;;;;7283841;19;20194;-78
2023/08/22 00:32:14;;;;;;;11.93;4.83;;;18.80;99.90;;;;;;7284528;19;20685;-78
2023/08/22 00:34:39;;;;;;;14.33;4.70;;;18.80;99.90;;;;;;7285685;19;20219;-78
2023/08/22 00:37:06;;;;;;;7.93;3.90;;;18.80;99.90;;;;;;7284252;19;20188;-78
2023/08/22 00:39:32;;;;;;;11.37;4.60;;;18.80;99.90;;;;;;7284651;19;20185;-78
2023/08/22 00:41:58;;;;;;;12.10;4.90;;;18.90;99.90;;;;;;7301533;19;20244;-78
2023/08/22 00:44:24;;;;;;;11.43;4.57;;;18.90;99.90;;;;;;7297885;19;20192;-79
2023/08/22 00:46:50;;;;;;;7.70;4.07;;;18.80;99.90;;;;;;7284324;19;20280;-79
2023/08/22 00:49:16;;;;;;;13.17;4.63;;;18.80;99.90;;;;;;7285781;19;20196;-78
2023/08/22 00:51:42;;;;;;;13.00;4.53;;;18.80;99.90;;;;;;7284644;19;20206;-79
2023/08/22 00:54:09;;;;;;;13.07;4.73;;;18.80;99.90;;;;;;7284304;19;20725;-79
2023/08/22 00:56:35;;;;;;;14.43;4.93;;;18.50;99.90;;;;;;7284449;19;20252;-78
2023/08/22 00:59:03;;;;;;;12.47;4.77;;;18.30;99.90;;;;;;7284471;19;20611;-78
2023/08/22 01:01:29;;;;;;;11.17;4.70;;;18.20;99.90;;;;;;7294007;19;20185;-78
2023/08/22 01:03:55;;;;;;;14.70;5.33;;;18.10;99.90;;;;;;7305490;19;20207;-79
2023/08/22 01:06:45;;;;;;;12.97;5.37;;;18.00;99.90;;;;;;7284535;19;20679;-79
2023/08/22 01:09:27;;;;;;;10.77;5.20;;;18.10;99.90;;;;;;7181253;19;2004687;-79
2023/08/22 01:12:05;;;;;;;14.23;4.93;;;18.00;99.90;;;;;;7284728;19;20252;-79
2023/08/22 01:14:36;;;;;;;14.37;4.93;;;18.00;99.90;;;;;;7261725;19;20272;-78
2023/08/22 01:17:03;;;;;;;13.23;5.03;;;18.10;99.90;;;;;;7283609;19;20195;-79
2023/08/22 01:19:29;;;;;;;10.67;4.80;;;18.20;99.90;;;;;;7284848;19;20190;-79
2023/08/22 01:21:56;;;;;;;14.70;4.43;;;18.30;99.90;;;;;;7306396;19;20995;-78
2023/08/22 01:24:22;;;;;;;10.80;5.17;;;18.40;99.90;;;;;;7281479;19;20216;-79
2023/08/22 01:26:48;;;;;;;14.23;5.30;;;18.40;99.90;;;;;;7282059;19;20197;-78
2023/08/22 01:29:22;;;;;;;12.50;4.67;;;18.40;99.90;;;;;;7284153;19;20549;-79
2023/08/22 01:32:05;;;;;;;10.50;4.57;;;18.40;99.90;;;;;;7285036;19;20265;-80
2023/08/22 01:34:33;;;;;;;12.70;4.93;;;18.50;99.90;;;;;;7260972;19;20827;-78
2023/08/22 01:37:00;;;;;;;11.00;4.40;;;18.50;99.90;;;;;;7289711;19;20185;-78
2023/08/22 01:39:28;;;;;;;12.63;4.67;;;18.50;99.90;;;;;;7304651;19;20284;-78
2023/08/22 01:41:55;;;;;;;12.50;4.93;;;18.40;99.90;;;;;;7284271;19;20192;-78
2023/08/22 01:44:21;;;;;;;15.77;5.60;;;18.40;99.90;;;;;;7280876;19;20195;-78
2023/08/22 01:46:47;;;;;;;12.83;4.80;;;18.40;99.90;;;;;;7282900;19;20217;-78
2023/08/22 01:49:12;;;;;;;13.23;4.77;;;18.40;99.90;;;;;;7280594;19;20656;-78
2023/08/22 01:51:38;;;;;;;13.60;5.00;;;18.40;99.90;;;;;;7278955;19;20184;-78
2023/08/22 01:54:04;;;;;;;14.40;5.17;;;18.30;99.90;;;;;;7280482;19;20635;-77
2023/08/22 01:56:30;;;;;;;12.57;5.00;;;18.20;99.90;;;;;;7284068;19;20290;-78
2023/08/22 01:58:59;;;;;;;13.53;4.97;;;18.00;99.90;;;;;;7310095;19;20984;-78
2023/08/22 02:01:25;;;;;;;12.00;5.20;;;18.10;99.90;;;;;;7289089;19;20183;-79
2023/08/22 02:03:51;;;;;;;13.93;5.00;;;18.00;99.90;;;;;;7288466;19;20195;-78
2023/08/22 02:06:17;;;;;;;11.23;5.27;;;18.00;99.90;;;;;;7289217;19;20209;-78
2023/08/22 02:08:43;;;;;;;12.40;5.37;;;17.80;99.90;;;;;;7290185;19;20954;-78
2023/08/22 02:11:09;;;;;;;14.13;5.57;;;17.80;99.90;;;;;;7289815;19;20218;-78
2023/08/22 02:13:34;;;;;;;10.90;5.20;;;17.70;99.90;;;;;;7288296;19;20317;-78
2023/08/22 02:16:00;;;;;;;11.87;5.17;;;17.70;99.90;;;;;;7288704;19;20763;-78
2023/08/22 02:18:27;;;;;;;11.63;5.53;;;17.60;99.90;;;;;;7311340;19;20187;-78
2023/08/22 02:20:54;;;;;;;11.77;5.00;;;17.50;99.90;;;;;;7288310;19;20185;-79
2023/08/22 02:23:20;;;;;;;10.40;5.40;;;17.50;99.90;;;;;;7289861;19;20185;-79
2023/08/22 02:25:49;;;;;;;11.20;4.83;;;17.60;99.90;;;;;;7287669;19;20537;-79
2023/08/22 02:28:15;;;;;;;11.03;4.77;;;17.60;99.90;;;;;;7288952;19;20223;-79
2023/08/22 02:30:41;;;;;;;12.00;5.37;;;17.60;99.90;;;;;;7287925;19;20196;-79
2023/08/22 02:33:06;;;;;;;13.73;5.57;;;17.60;99.90;;;;;;7289059;19;20181;-78
2023/08/22 02:35:32;;;;;;;13.17;5.80;;;17.50;99.90;;;;;;7289534;19;20189;-79
2023/08/22 02:37:58;;;;;;;16.33;5.20;;;17.40;99.90;;;;;;7304515;19;20593;-78
2023/08/22 02:40:24;;;;;;;12.33;5.57;;;17.40;99.90;;;;;;7301859;19;20226;-79
2023/08/22 02:42:49;;;;;;;11.60;5.33;;;17.40;99.90;;;;;;7289817;19;20201;-79
2023/08/22 02:45:18;;;;;;;12.17;5.63;;;17.50;99.90;;;;;;7286802;19;20185;-79
2023/08/22 02:47:44;;;;;;;16.00;5.40;;;17.50;99.90;;;;;;7290358;19;20185;-79
2023/08/22 02:50:09;;;;;;;14.07;5.83;;;17.40;99.90;;;;;;7287756;19;20626;-79
2023/08/22 02:52:36;;;;;;;11.60;5.50;;;17.50;99.90;;;;;;7288026;19;20546;-79
2023/08/22 02:55:03;;;;;;;12.90;5.27;;;17.60;99.90;;;;;;7287184;19;20211;-79
2023/08/22 02:57:31;;;;;;;13.80;5.37;;;17.60;99.90;;;;;;7298670;19;20193;-78
2023/08/22 02:59:57;;;;;;;11.20;5.70;;;17.70;99.90;;;;;;7309522;19;20189;-79
2023/08/22 03:02:22;;;;;;;12.77;6.53;;;17.80;99.90;;;;;;7288640;19;20210;-79
2023/08/22 03:04:52;;;;;;;12.30;5.60;;;17.70;99.90;;;;;;7287730;19;20213;-79
2023/08/22 03:07:18;;;;;;;14.37;5.90;;;17.70;99.90;;;;;;7285650;19;20190;-79
2023/08/22 03:09:47;;;;;;;16.93;6.80;;;17.80;99.90;;;;;;7288166;19;20189;-79
2023/08/22 03:12:13;;;;;;;15.17;7.10;;;17.80;99.90;;;;;;7287128;19;20196;-79
2023/08/22 03:14:40;;;;;;;15.50;7.53;;;17.90;99.90;;;;;;7288200;19;20189;-79
2023/08/22 03:17:06;;;;;;;13.73;6.60;;;18.00;99.90;;;;;;7287246;19;20252;-79
2023/08/22 03:19:31;;;;;;;13.30;6.80;;;18.00;99.90;;;;;;7287506;19;20287;-79
2023/08/22 03:22:01;;;;;;;15.50;7.20;;;18.10;99.90;;;;;;7287254;19;20256;-79
2023/08/22 03:24:30;;;;;;;14.80;6.70;;;18.20;99.90;;;;;;7295042;19;20555;-79
2023/08/22 03:26:56;;;;;;;13.33;6.23;;;18.10;99.90;;;;;;7306165;19;20195;-80
2023/08/22 03:29:22;;;;;;;16.17;6.80;;;18.10;99.90;;;;;;7288332;19;20534;-80
2023/08/22 03:31:48;;;;;;;16.40;6.43;;;18.00;99.90;;;;;;7286676;19;20213;-79
2023/08/22 03:34:15;;;;;;;14.07;6.50;;;18.00;99.90;;;;;;7287912;19;20188;-79
2023/08/22 03:36:41;;;;;;;15.57;6.50;;;17.90;99.90;;;;;;7286196;19;20264;-79
2023/08/22 03:39:08;;;;;;;18.17;6.87;;;17.80;99.90;;;;;;7285916;19;20192;-79
2023/08/22 03:41:34;;;;;;;12.43;6.40;;;17.70;99.90;;;;;;7286786;19;20213;-80
2023/08/22 03:44:01;;;;;;;13.93;6.33;;;17.70;99.90;;;;;;7285684;19;20248;-80
2023/08/22 03:46:27;;;;;;;11.67;6.07;;;17.70;99.90;;;;;;7308609;19;20224;-79
2023/08/22 03:48:53;;;;;;;11.80;6.37;;;17.70;99.90;;;;;;7287848;19;20192;-78
2023/08/22 03:51:20;;;;;;;12.73;6.33;;;17.80;99.90;;;;;;7286216;19;20185;-78
2023/08/22 03:53:46;;;;;;;12.17;6.30;;;17.90;99.90;;;;;;7284947;19;20189;-78
2023/08/22 03:56:12;;;;;;;13.13;6.30;;;17.90;99.90;;;;;;7284281;19;20253;-78
2023/08/22 03:58:38;;;;;;;14.90;6.60;;;17.90;99.90;;;;;;7285472;19;20217;-78
2023/08/22 04:01:04;;;;;;;12.27;6.60;;;17.90;99.90;;;;;;7286031;19;20642;-78
2023/08/22 04:03:31;;;;;;;16.47;6.27;;;18.00;99.90;;;;;;7285389;19;20342;-78
2023/08/22 04:05:59;;;;;;;12.03;6.47;;;18.00;99.90;;;;;;7307971;19;20196;-78
2023/08/22 04:08:27;;;;;;;15.23;6.57;;;18.00;99.90;;;;;;7287293;19;20199;-78
2023/08/22 04:10:53;;;;;;;12.73;5.83;;;17.90;99.90;;;;;;7286515;19;20177;-78
2023/08/22 04:13:20;;;;;;;14.27;5.87;;;17.90;99.90;;;;;;7286114;19;20242;-78
2023/08/22 04:15:47;;;;;;;11.23;5.67;;;17.80;99.90;;;;;;7285105;19;20185;-78
2023/08/22 04:18:12;;;;;;;10.47;5.17;;;17.80;99.90;;;;;;7284414;19;20867;-79
2023/08/22 04:20:39;;;;;;;13.17;6.00;;;17.70;99.90;;;;;;7282647;19;20540;-78
2023/08/22 04:23:06;;;;;;;14.97;5.80;;;17.70;99.90;;;;;;7283384;19;20691;-79
2023/08/22 04:25:32;;;;;;;13.20;5.93;;;17.70;99.90;;;;;;7284485;19;20238;-78
2023/08/22 04:27:59;;;;;;;15.17;6.37;;;17.70;99.90;;;;;;7295701;19;20258;-77
2023/08/22 04:30:24;;;;;;;15.40;5.47;;;17.70;99.90;;;;;;7300715;19;20205;-78
2023/08/22 04:32:50;;;;;;;14.00;5.90;;;17.80;99.90;;;;;;7281788;19;20214;-79
2023/08/22 04:35:17;;;;;;;11.80;6.50;;;17.80;99.90;;;;;;7283108;19;20196;-78
2023/08/22 04:37:45;;;;;;;13.20;5.93;;;17.80;99.90;;;;;;7282913;19;20222;-78
2023/08/22 04:40:12;;;;;;;16.63;6.07;;;17.80;99.90;;;;;;7283473;19;20177;-78
2023/08/22 04:42:43;;;;;;;12.90;5.83;;;17.80;99.90;;;;;;7284291;19;20192;-78
2023/08/22 04:45:10;;;;;;;13.67;5.93;;;17.80;99.90;;;;;;7281869;19;20194;-79
2023/08/22 04:47:36;;;;;;;12.80;5.97;;;17.80;99.90;;;;;;7284470;19;21117;-79
2023/08/22 04:50:02;;;;;;;16.67;5.83;;;17.80;99.90;;;;;;7285697;19;20196;-78
2023/08/22 04:52:28;;;;;;;11.67;5.60;;;17.70;99.90;;;;;;7298985;19;20688;-78
2023/08/22 04:54:55;;;;;;;12.53;6.10;;;17.70;99.90;;;;;;7299107;19;20199;-79
2023/08/22 04:57:23;;;;;;;12.43;5.73;;;17.70;99.90;;;;;;7284118;19;20184;-79
2023/08/22 04:59:52;;;;;;;12.13;5.30;;;17.70;99.90;;;;;;7281602;19;20640;-79
2023/08/22 05:02:18;;;;;;;13.43;5.53;;;17.80;99.90;;;;;;7283467;19;20292;-79
2023/08/22 05:04:45;;;;;;;10.80;5.40;;;17.90;99.90;;;;;;7283321;19;20202;-79
2023/08/22 05:07:11;;;;;;;13.67;6.00;;;17.80;99.90;;;;;;7283803;19;20240;-79
2023/08/22 05:09:36;;;;;;;16.23;6.10;;;18.00;99.90;;;;;;7284507;19;20353;-78
2023/08/22 05:12:03;;;;;;;16.87;6.27;;;18.00;99.90;;;;;;7283233;19;20181;-79
2023/08/22 05:14:30;;;;;;;15.93;6.67;;;18.10;99.90;;;;;;7298853;19;20200;-77
2023/08/22 05:16:55;;;;;;;16.17;6.33;;;18.10;99.90;;;;;;7304992;19;20188;-77
2023/08/22 05:19:21;;;;;;;17.70;6.27;;;18.20;99.90;;;;;;7283690;19;20195;-78
2023/08/22 05:21:47;;;;;;;11.70;5.87;;;18.30;99.90;;;;;;7285143;19;20199;-78
2023/08/22 05:24:12;;;;;;;16.80;6.30;;;18.40;99.90;;;;;;7282679;19;20189;-78
2023/08/22 05:26:38;;;;;;;14.67;6.10;;;18.50;99.90;;;;;;7284644;19;20194;-80
2023/08/22 05:29:04;;;;;;;14.43;5.57;;;18.70;99.90;;;;;;7283111;19;20203;-78
2023/08/22 05:31:32;;;;;;;15.10;5.40;;;19.20;99.90;;;;;;7278448;19;20599;-79
2023/08/22 05:33:59;;;;;;;12.83;5.40;;;20.30;99.90;;;;;;7294716;19;20242;-79
2023/08/22 05:36:25;;;;;;;9.80;4.63;;;21.30;99.90;;;;;;7301301;19;20182;-80
2023/08/22 05:38:52;;;;;;;13.90;5.00;;;22.20;99.90;;;;;;7283210;19;20199;-79
2023/08/22 05:41:18;;;;;;;12.20;4.60;;;23.20;99.90;;;;;;7282638;19;21073;-80
2023/08/22 05:43:44;;;;;;;14.00;4.83;;;23.60;99.90;;;;;;7283602;19;20185;-80
2023/08/22 05:46:09;;;;;;;14.23;5.40;;;23.40;99.90;;;;;;7282057;19;20192;-79
2023/08/22 05:48:35;;;;;;;14.43;5.40;;;24.00;99.90;;;;;;7283305;19;20192;-80
2023/08/22 05:51:02;;;;;;;12.73;5.10;;;24.60;99.90;;;;;;7281167;19;20185;-80
2023/08/22 05:53:29;;;;;;;10.33;4.63;;;24.90;99.90;;;;;;7299629;19;20824;-79
2023/08/22 05:55:55;;;;;;;10.77;4.53;;;24.50;99.90;;;;;;7298678;19;20644;-79
2023/08/22 05:58:21;;;;;;;11.93;4.60;;;24.10;99.90;;;;;;7280909;19;20188;-79
2023/08/22 06:00:47;;;;;;;12.47;4.30;;;23.70;99.90;;;;;;7282036;19;20268;-79
2023/08/22 06:03:14;;;;;;;13.53;4.57;;;23.50;99.90;;;;;;7281876;19;20276;-79
2023/08/22 06:05:40;;;;;;;10.10;4.63;;;23.40;99.90;;;;;;7279508;19;20193;-79
2023/08/22 06:08:06;;;;;;;9.87;4.60;;;23.30;99.90;;;;;;7281131;19;20673;-79
2023/08/22 06:10:32;;;;;;;12.97;4.97;;;23.30;99.90;;;;;;7281649;19;20180;-78
2023/08/22 06:12:57;;;;;;;9.53;4.70;;;23.30;99.90;;;;;;7302857;19;20188;-79
2023/08/22 06:15:23;;;;;;;10.77;5.00;;;23.00;99.90;;;;;;7280700;19;20210;-79
2023/08/22 06:17:49;;;;;;;11.37;5.30;;;22.60;99.90;;;;;;7281671;19;20705;-79
2023/08/22 06:20:15;;;;;;;13.80;5.27;;;22.50;99.90;;;;;;7282311;19;20977;-78
2023/08/22 06:22:41;;;;;;;10.80;5.10;;;22.40;99.90;;;;;;7279904;19;20308;-76
2023/08/22 06:25:08;;;;;;;11.10;5.00;;;22.40;99.90;;;;;;7279831;19;20312;-78
2023/08/22 06:27:33;;;;;;;15.23;5.63;;;22.40;99.90;;;;;;7277779;19;20203;-78
2023/08/22 06:30:03;;;;;;;14.07;6.10;;;22.50;99.90;;;;;;7278611;19;20188;-78
2023/08/22 06:32:33;;;;;;;13.93;6.13;;;22.60;99.90;;;;;;7279981;19;20639;-78
2023/08/22 06:34:59;;;;;;;12.97;5.53;;;22.70;99.90;;;;;;7289938;19;20196;-78
2023/08/22 06:37:25;;;;;;;15.10;5.90;;;22.70;99.90;;;;;;7301615;19;20221;-77
2023/08/22 06:39:53;;;;;;;13.03;6.13;;;22.80;99.90;;;;;;7278297;19;20644;-77
2023/08/22 06:42:18;;;;;;;16.53;6.67;;;22.90;99.90;;;;;;7281206;19;20197;-79
2023/08/22 06:44:48;;;;;;;17.97;6.60;;;23.10;99.90;;;;;;7286153;19;20212;-78
2023/08/22 06:47:15;;;;;;;15.30;6.80;;;23.50;99.90;;;;;;7287824;19;20207;-77
2023/08/22 06:49:41;;;;;;;16.60;8.50;;;23.90;99.90;;;;;;7286292;19;20830;-78
2023/08/22 06:52:06;;;;;;;19.37;9.10;;;24.40;99.90;;;;;;7286145;19;20692;-78
2023/08/22 06:54:32;;;;;;;17.80;8.60;;;25.00;99.90;;;;;;7286843;19;20200;-78
2023/08/22 06:56:58;;;;;;;18.23;9.20;;;25.40;99.90;;;;;;7308346;19;20245;-77
2023/08/22 06:59:24;;;;;;;16.77;9.70;;;25.60;99.90;;;;;;7287283;19;20195;-77
2023/08/22 07:01:50;;;;;;;20.23;9.48;;;25.70;99.90;;;;;;7288154;19;20189;-77
2023/08/22 07:04:16;;;;;;;19.00;8.18;;;26.50;99.90;;;;;;7284890;19;20375;-77
2023/08/22 07:06:41;;;;;;;19.38;8.77;;;28.00;99.90;;;;;;7286037;19;20206;-77
2023/08/22 07:09:07;;;;;;;20.48;8.60;;;29.60;99.90;;;;;;7285500;19;20192;-78
2023/08/22 07:11:33;;;;;;;16.75;7.55;;;31.40;99.90;;;;;;7286384;19;20252;-77
2023/08/22 07:13:59;;;;;;;14.98;6.88;;;33.40;99.90;;;;;;7298597;19;20293;-78
2023/08/22 07:16:24;;;;;;;15.70;6.82;;;34.90;99.90;;;;;;7300844;19;20181;-78
2023/08/22 07:18:50;;;;;;;15.63;7.35;;;34.30;99.90;;;;;;7284831;19;20200;-78
2023/08/22 07:21:16;;;;;;;14.05;6.68;;;33.50;99.90;;;;;;7286533;19;20217;-77
2023/08/22 07:23:42;;;;;;;19.65;7.60;;;33.80;99.90;;;;;;7285221;19;20252;-77
2023/08/22 07:26:07;;;;;;;14.35;6.53;;;35.60;99.40;;;;;;7283885;19;20676;-78
2023/08/22 07:28:33;;;;;;;17.27;7.28;;;35.40;99.20;;;;;;7285327;19;20207;-77
2023/08/22 07:31:03;;;;;;;21.55;6.80;;;35.20;97.50;;;;;;7300669;19;20196;-77
2023/08/22 07:33:29;;;;;;;16.00;7.45;;;34.80;96.90;;;;;;7294380;19;20192;-77
2023/08/22 07:35:55;;;;;;;20.90;8.15;;;33.70;96.80;;;;;;7307556;19;20252;-78
2023/08/22 07:38:21;;;;;;;20.30;8.05;;;32.60;99.10;;;;;;7283983;19;20227;-78
2023/08/22 07:40:46;;;;;;;19.52;8.13;;;31.80;99.90;;;;;;7284663;19;20192;-78
2023/08/22 07:43:12;;;;;;;16.70;7.72;;;31.40;99.90;;;;;;7283581;19;20204;-78
2023/08/22 07:45:38;;;;;;;16.63;8.38;;;31.00;99.90;;;;;;7282596;19;20227;-78
2023/08/22 07:48:04;;;;;;;20.38;8.25;;;30.60;99.90;;;;;;7284319;19;20189;-78
2023/08/22 07:50:30;;;;;;;17.75;9.05;;;30.70;99.90;;;;;;7289559;19;20248;-78
2023/08/22 07:52:57;;;;;;;16.45;8.50;;;31.00;99.90;;;;;;7304759;19;20681;-78
2023/08/22 07:55:23;;;;;;;21.10;8.90;;;31.30;99.90;;;;;;7284400;19;20207;-79
2023/08/22 07:57:50;;;;;;;18.98;8.73;;;31.60;99.90;;;;;;7283342;19;20198;-78
2023/08/22 08:00:17;;;;;;;22.30;8.55;;;31.70;99.90;;;;;;7283735;19;20212;-78
2023/08/22 08:02:43;;;;;;;18.45;6.95;;;31.60;99.90;;;;;;7283314;19;20538;-77
2023/08/22 08:05:09;;;;;;;19.92;7.85;;;31.30;99.90;;;;;;7282976;19;20209;-77
2023/08/22 08:07:35;;;;;;;20.02;7.88;;;30.70;99.90;;;;;;7283025;19;20185;-77
2023/08/22 08:10:01;;;;;;;16.20;7.70;;;30.40;99.90;;;;;;7284099;19;20189;-77
2023/08/22 08:12:26;;;;;;;21.38;7.60;;;30.20;99.90;;;;;;7304339;19;20181;-78
2023/08/22 08:14:52;;;;;;;16.55;7.68;;;30.00;99.90;;;;;;7283692;19;20289;-78
2023/08/22 08:17:19;;;;;;;12.98;6.75;;;29.70;99.90;;;;;;7283871;19;20193;-77
2023/08/22 08:19:45;;;;;;;19.02;7.30;;;29.20;99.90;;;;;;7284080;19;20219;-78
2023/08/22 08:22:11;;;;;;;19.02;6.70;;;29.60;99.90;;;;;;7284357;19;20185;-78
2023/08/22 08:24:37;;;;;;;15.50;6.60;;;29.80;99.90;;;;;;7281673;19;20197;-78
2023/08/22 08:27:03;;;;;;;19.50;6.75;;;30.20;99.90;;;;;;7283907;19;20191;-77
2023/08/22 08:29:29;;;;;;;14.20;6.25;;;30.70;99.90;;;;;;7295677;19;20189;-77
2023/08/22 08:31:56;;;;;;;19.48;6.45;;;30.50;99.90;;;;;;7300983;19;20264;-77
2023/08/22 08:34:23;;;;;;;14.88;6.15;;;30.60;99.90;;;;;;7283083;19;20192;-78
2023/08/22 08:36:52;;;;;;;13.32;6.32;;;30.50;99.90;;;;;;7281920;19;20259;-79
2023/08/22 08:39:18;;;;;;;14.93;6.07;;;30.20;99.90;;;;;;7283541;19;20188;-78
2023/08/22 08:42:13;;;;;;;11.98;4.82;;;30.30;99.90;;;;;;7283176;19;20601;-78
2023/08/22 08:44:40;;;;;;;13.07;5.80;;;30.70;99.90;;;;;;7180078;19;2004665;-78
2023/08/22 08:47:10;;;;;;;14.10;5.85;;;30.90;99.90;;;;;;7281578;19;20181;-78
2023/08/22 08:49:37;;;;;;;13.80;5.60;;;30.30;99.90;;;;;;7282821;19;20183;-78
2023/08/22 08:52:04;;;;;;;11.88;5.10;;;29.60;99.90;;;;;;7281711;19;20196;-78
2023/08/22 08:54:31;;;;;;;12.57;6.22;;;29.80;99.90;;;;;;7286705;19;20185;-78
2023/08/22 08:56:57;;;;;;;12.73;6.15;;;30.20;99.90;;;;;;7305453;19;20607;-79
2023/08/22 08:59:23;;;;;;;12.55;6.28;;;30.20;99.90;;;;;;7281790;19;20184;-78
2023/08/22 09:01:52;;;;;;;11.88;5.80;;;30.30;99.90;;;;;;7283055;19;20187;-78
2023/08/22 09:04:19;;;;;;;13.60;6.65;;;29.90;99.90;;;;;;7281129;19;20206;-78
2023/08/22 09:06:46;;;;;;;14.60;6.40;;;29.80;99.90;;;;;;7278303;19;20775;-77
2023/08/22 09:09:13;;;;;;;13.30;6.07;;;29.80;99.90;;;;;;7282033;19;20286;-77
2023/08/22 09:11:47;;;;;;;15.05;7.05;;;29.70;99.90;;;;;;7282472;19;20189;-77
2023/08/22 09:14:18;;;;;;;12.82;6.18;;;29.80;99.90;;;;;;7280663;19;20198;-77
2023/08/22 09:16:44;;;;;;;12.85;5.70;;;29.80;99.90;;;;;;7283335;19;20248;-78
2023/08/22 09:19:11;;;;;;;14.43;5.60;;;30.00;99.90;;;;;;7281565;19;20264;-78
2023/08/22 09:21:37;;;;;;;12.60;5.05;;;30.30;99.90;;;;;;7280963;19;20196;-77
2023/08/22 09:24:08;;;;;;;12.57;5.20;;;30.10;99.90;;;;;;7281590;19;20192;-77
2023/08/22 09:26:34;;;;;;;12.30;4.78;;;30.20;99.90;;;;;;7282360;19;20193;-78
2023/08/22 09:29:07;;;;;;;14.65;4.32;;;30.20;99.90;;;;;;7283535;19;20200;-78
2023/08/22 09:31:35;;;;;;;13.07;4.82;;;30.30;99.90;;;;;;7281571;19;20192;-78
2023/08/22 09:34:09;;;;;;;11.48;4.32;;;30.60;99.90;;;;;;7280788;19;20184;-78
2023/08/22 09:36:44;;;;;;;13.82;4.80;;;31.20;99.90;;;;;;7280829;19;20184;-78
2023/08/22 09:39:13;;;;;;;10.10;3.65;;;31.40;99.90;;;;;;7282279;19;20199;-78
2023/08/22 09:41:39;;;;;;;13.48;5.03;;;31.70;99.90;;;;;;7282499;19;20189;-78
2023/08/22 09:44:06;;;;;;;16.95;5.38;;;31.90;99.90;;;;;;7280089;19;20189;-79
2023/08/22 09:46:33;;;;;;;11.75;4.50;;;32.30;99.90;;;;;;7279080;19;20212;-78
2023/08/22 09:49:00;;;;;;;12.82;4.03;;;32.60;99.90;;;;;;7301312;19;20588;-77
2023/08/22 09:51:26;;;;;;;13.05;3.72;;;32.90;99.90;;;;;;7280050;19;20193;-78
2023/08/22 09:53:59;;;;;;;11.52;3.42;;;33.50;99.90;;;;;;7279916;19;20204;-78
2023/08/22 09:56:25;;;;;;;7.57;2.95;;;34.60;99.90;;;;;;7279694;19;20181;-77
2023/08/22 09:58:52;;;;;;;11.65;4.03;;;35.80;98.00;;;;;;7281177;19;20192;-78
2023/08/22 10:01:19;;;;;;;7.20;2.65;;;36.50;97.20;;;;;;7281153;19;20198;-77
2023/08/22 10:03:53;;;;;;;11.50;2.95;;;35.90;94.00;;;;;;7278919;19;20210;-78
2023/08/22 10:06:21;;;;;;;8.18;2.17;;;35.80;93.90;;;;;;7278565;19;20200;-77
2023/08/22 10:08:48;;;;;;;12.95;2.72;;;36.00;93.90;;;;;;7280531;19;20599;-78
2023/08/22 10:11:16;;;;;;;8.25;2.55;;;37.20;92.30;;;;;;7279717;19;20202;-77
2023/08/22 10:13:43;;;;;;;15.50;3.45;;;37.70;90.90;;;;;;7279209;19;20189;-77
2023/08/22 10:16:08;;;;;;;11.48;2.45;;;38.70;87.70;;;;;;7278472;19;20189;-77
2023/08/22 10:18:35;;;;;;;9.45;2.70;;;37.20;89.90;;;;;;7286117;19;20289;-78
2023/08/22 10:21:03;;;;;;;8.55;2.63;;;36.50;90.10;;;;;;7288372;19;20217;-78
2023/08/22 10:23:58;;;;;;;8.70;3.10;;;35.20;90.80;;;;;;7304254;19;20189;-78
2023/08/22 10:26:28;;;;;;;8.82;2.70;;;34.40;93.10;;;;;;7287870;19;20192;-78
2023/08/22 10:29:16;;;;;;;10.65;2.80;;;34.10;93.30;;;;;;7287452;19;20181;-78
2023/08/22 10:32:02;;;;;;;9.30;2.83;;;33.00;93.30;;;;;;7182764;19;2005060;-78
2023/08/22 10:34:34;;;;;;;8.15;2.78;;;32.40;96.00;;;;;;7286584;19;20192;-78
2023/08/22 10:37:02;;;;;;;7.55;2.53;;;32.20;96.20;;;;;;7271056;19;20645;-76
2023/08/22 10:39:41;;;;;;;9.95;3.30;;;32.50;96.60;;;;;;7317576;19;20185;-77
2023/08/22 10:42:21;;;;;;;9.35;2.67;;;32.50;97.00;;;;;;7184404;19;2004741;-78
2023/08/22 10:44:52;;;;;;;9.27;2.90;;;32.40;96.10;;;;;;7284772;19;20196;-78
2023/08/22 10:47:19;;;;;;;12.38;3.28;;;32.10;96.90;;;;;;7286023;19;20189;-77
2023/08/22 10:50:09;;;;;;;9.45;2.75;;;32.00;97.60;;;;;;7286560;19;20193;-78
2023/08/22 10:52:36;;;;;;;9.15;2.20;;;32.80;97.80;;;;;;7182067;19;2004694;-78
2023/08/22 10:55:10;;;;;;;8.00;3.17;;;33.40;96.60;;;;;;7287086;19;20523;-78
2023/08/22 10:57:46;;;;;;;5.75;1.92;;;33.00;94.90;;;;;;7286183;19;20192;-78
2023/08/22 11:00:21;;;;;;;6.40;2.45;;;32.00;96.80;;;;;;7286006;19;20193;-78
2023/08/22 11:02:51;;;;;;;5.57;1.73;;;32.80;97.90;;;;;;7286354;19;20192;-78
2023/08/22 11:05:17;;;;;;;8.15;2.22;;;33.50;93.80;;;;;;7284440;19;20206;-78
2023/08/22 11:07:48;;;;;;;6.70;1.77;;;34.40;94.80;;;;;;7286084;19;20627;-78
2023/08/22 11:10:19;;;;;;;7.15;1.80;;;35.20;93.90;;;;;;7286080;19;20185;-77
2023/08/22 11:12:46;;;;;;;5.55;1.15;;;35.80;91.60;;;;;;7283527;19;20193;-78
2023/08/22 11:15:13;;;;;;;6.60;1.42;;;36.00;90.20;;;;;;7285050;19;20185;-77
2023/08/22 11:17:43;;;;;;;6.70;1.30;;;35.80;90.90;;;;;;7284754;19;20206;-77
2023/08/22 11:20:13;;;;;;;6.75;1.58;;;37.20;90.10;;;;;;7284177;19;20188;-78
2023/08/22 11:22:43;;;;;;;6.35;1.20;;;37.70;88.70;;;;;;7284871;19;20199;-77
2023/08/22 11:25:13;;;;;;;6.03;1.20;;;38.30;85.80;;;;;;7282727;19;20279;-79
2023/08/22 11:27:40;;;;;;;6.10;1.20;;;38.60;80.70;;;;;;7283740;19;20868;-79
2023/08/22 11:30:07;;;;;;;5.03;1.13;;;37.90;81.70;;;;;;7282148;19;20220;-78
2023/08/22 11:32:38;;;;;;;3.40;1.00;;;37.40;82.20;;;;;;7283676;19;20803;-77
2023/08/22 11:35:06;;;;;;;6.40;1.38;;;37.30;81.70;;;;;;7285401;19;20649;-78
2023/08/22 11:37:33;;;;;;;4.90;1.20;;;37.90;76.80;;;;;;7284195;19;20193;-79
2023/08/22 11:40:00;;;;;;;5.90;1.10;;;37.20;79.70;;;;;;7302621;19;20566;-78
2023/08/22 11:42:30;;;;;;;4.22;0.90;;;36.60;76.90;;;;;;7305090;19;20250;-77
2023/08/22 11:45:10;;;;;;;4.82;1.00;;;36.20;79.60;;;;;;7283294;19;20181;-78
2023/08/22 11:47:53;;;;;;;5.70;1.30;;;35.60;79.10;;;;;;7181173;19;2005178;-78
2023/08/22 11:50:27;;;;;;;5.53;1.10;;;35.70;80.80;;;;;;7284543;19;20187;-78
2023/08/22 11:52:55;;;;;;;7.55;1.67;;;35.60;82.10;;;;;;7282872;19;20204;-78
2023/08/22 11:55:28;;;;;;;3.78;0.98;;;35.70;83.30;;;;;;7284205;19;20182;-79
2023/08/22 11:57:59;;;;;;;5.55;1.25;;;35.30;81.80;;;;;;7283473;19;20181;-78
2023/08/22 12:00:27;;;;;;;5.85;1.00;;;35.00;82.80;;;;;;7284318;19;20185;-79
2023/08/22 12:02:54;;;;;;;4.55;1.00;;;35.10;85.40;;;;;;7282447;19;20185;-77
2023/08/22 12:05:33;;;;;;;5.72;1.25;;;34.80;82.50;;;;;;7281814;19;20596;-77
2023/08/22 12:08:00;;;;;;;4.70;1.20;;;34.70;85.10;;;;;;7283958;19;20215;-77
2023/08/22 12:10:47;;;;;;;5.32;1.05;;;34.80;86.00;;;;;;7283171;19;20188;-77
2023/08/22 12:13:23;;;;;;;3.38;0.90;;;34.90;88.00;;;;;;7180498;19;2004791;-77
2023/08/22 12:15:50;;;;;;;5.75;1.27;;;35.80;82.70;;;;;;7277881;19;20213;-76
2023/08/22 12:18:16;;;;;;;6.38;1.40;;;35.50;81.80;;;;;;7278766;19;20193;-77
2023/08/22 12:20:43;;;;;;;5.00;1.10;;;36.50;81.80;;;;;;7281744;19;20314;-77
2023/08/22 12:23:11;;;;;;;7.82;1.17;;;36.60;79.30;;;;;;7281964;19;20797;-78
2023/08/22 12:25:39;;;;;;;3.28;1.00;;;36.40;79.40;;;;;;7280037;19;20180;-77
2023/08/22 12:28:08;;;;;;;8.40;1.30;;;36.30;77.80;;;;;;7281313;19;20184;-77
2023/08/22 12:30:36;;;;;;;4.75;1.20;;;35.70;83.70;;;;;;7282042;19;20578;-77
2023/08/22 12:33:03;;;;;;;4.38;1.10;;;35.30;82.20;;;;;;7280196;19;20180;-77
2023/08/22 12:35:31;;;;;;;4.28;1.00;;;34.90;82.90;;;;;;7304165;19;20245;-77
2023/08/22 12:37:57;;;;;;;22.15;1.90;;;34.60;84.90;;;;;;7281747;19;20190;-77
2023/08/22 12:40:23;;;;;;;5.68;1.20;;;34.30;87.30;;;;;;7280354;19;20181;-76